Seaspan Protector — CFN6635 — position and weather

sailwx.info

Track history (hours):
 
Tides and Currents Weather Stations Pressure Air Temp Water Temp Dewpoint Dewpoint Depression Visibility Wind Speed Wind Dir Waves Ship Positions

Seaspan Protector

Last reported at 2018-Jan-20 16:59 UTC. Time now 2018-Jan-20 17:23 UTC.
Position N 49°16' W 123°17'.

Length 22 m; draft 3.2 m.

Type: Towing. MMSI: 316003677.

Date/timePositionNaut miles runAvg speedWind from/ knotsBaromVisibWave heightAir tempDewpointWater temp
2018-Jan-20 16:59N 49°16' W 123°17'2 3.1
2018-Jan-20 16:28N 49°15' W 123°16'0 0.5
2018-Jan-20 15:57N 49°15' W 123°16'0 0.8
2018-Jan-20 15:30N 49°15' W 123°16'2 4.6
2018-Jan-20 14:59N 49°15' W 123°20'4 6.6
2018-Jan-20 14:26N 49°14' W 123°25'3 6.5
2018-Jan-20 13:59N 49°14' W 123°30'3 5.7
2018-Jan-20 13:26N 49°14' W 123°34'13 5.5
2018-Jan-20 11:08N 49°11' W 123°53'3 0.8
2018-Jan-20 07:21N 49°13' W 123°50'12 4.1
2018-Jan-20 04:32N 49°09' W 123°33'2 5.6
2018-Jan-20 04:09N 49°08' W 123°30'1 5.2
2018-Jan-20 04:00N 49°08' W 123°28'3 5.2
2018-Jan-20 03:23N 49°07' W 123°24'2 5.5
2018-Jan-20 02:57N 49°06' W 123°20'2 5.3
2018-Jan-20 02:30N 49°07' W 123°17'4 5.2
2018-Jan-20 01:48N 49°07' W 123°11'3 6.3
2018-Jan-20 01:24N 49°07' W 123°08'3 6.2
2018-Jan-20 00:57N 49°08' W 123°04'3 6.2
2018-Jan-20 00:30N 49°09' W 123°00'2 3.8
2018-Jan-19 23:58N 49°09' W 122°57'1 2.7
2018-Jan-19 23:30N 49°10' W 122°55'0 0.0
2018-Jan-19 23:00N 49°10' W 122°55'0 0.0
2018-Jan-19 22:30N 49°10' W 122°55'0 0.0
2018-Jan-19 21:59N 49°10' W 122°55'0 0.0
2018-Jan-19 21:29N 49°10' W 122°55'0 0.0
2018-Jan-19 20:59N 49°10' W 122°55'0 0.0
2018-Jan-19 20:30N 49°10' W 122°55'0 0.0
2018-Jan-19 20:00N 49°10' W 122°55'0 0.0
2018-Jan-19 19:30N 49°10' W 122°55'0 0.0
2018-Jan-19 18:59N 49°10' W 122°55'0 0.0
2018-Jan-19 18:30N 49°10' W 122°55'0 0.0
2018-Jan-19 18:00N 49°10' W 122°55'0 0.0
2018-Jan-19 17:29N 49°10' W 122°55'0 0.0
2018-Jan-19 16:59N 49°10' W 122°55'0 0.0
2018-Jan-19 16:16N 49°10' W 122°55'0 0.0
2018-Jan-19 15:59N 49°10' W 122°55'0 0.0
2018-Jan-19 15:29N 49°10' W 122°55'0 0.0
2018-Jan-19 14:42N 49°10' W 122°55'0 0.0
2018-Jan-19 14:19N 49°10' W 122°55'0 0.0
2018-Jan-19 13:59N 49°10' W 122°55'0 0.0
2018-Jan-19 13:30N 49°10' W 122°55'0 0.0
2018-Jan-19 13:00N 49°10' W 122°55'0 0.0
2018-Jan-19 12:29N 49°10' W 122°55'2 3.9
2018-Jan-19 12:00N 49°09' W 122°58'3 5.1
2018-Jan-19 11:29N 49°09' W 123°02'3 6.2
2018-Jan-19 10:59N 49°07' W 123°06'3 5.5
2018-Jan-19 10:29N 49°07' W 123°10'3 5.8
2018-Jan-19 10:00N 49°08' W 123°14'3 5.2
2018-Jan-19 09:30N 49°07' W 123°17'2 3.8
2018-Jan-19 09:00N 49°06' W 123°20'4 6.0
2018-Jan-19 08:16N 49°08' W 123°27'8 0.9
2018-Jan-18 22:18N 49°11' W 123°39'5 8.1
2018-Jan-18 21:39N 49°09' W 123°31'3 8.4
2018-Jan-18 21:16N 49°08' W 123°27'2 8.0
2018-Jan-18 21:00N 49°07' W 123°24'5 7.5
2018-Jan-18 20:23N 49°07' W 123°16'3 8.0
2018-Jan-18 19:57N 49°07' W 123°11'4 8.7
2018-Jan-18 19:30N 49°07' W 123°05'4 8.5
2018-Jan-18 19:00N 49°09' W 122°60'2 1.1
2018-Jan-18 17:16N 49°10' W 122°57'0 0.0
2018-Jan-18 16:47N 49°10' W 122°57'0 0.0
2018-Jan-18 16:18N 49°10' W 122°57'0 0.0
2018-Jan-18 15:43N 49°10' W 122°57'0 0.0
2018-Jan-18 15:29N 49°10' W 122°57'0 0.0
2018-Jan-18 14:58N 49°10' W 122°57'0 0.0
2018-Jan-18 13:41N 49°10' W 122°57'0 0.0
2018-Jan-18 13:29N 49°10' W 122°57'0 0.0
2018-Jan-18 12:55N 49°10' W 122°57'0 0.0
2018-Jan-18 06:51N 49°10' W 122°57'0 0.0
2018-Jan-18 06:30N 49°10' W 122°57'0 0.3
2018-Jan-18 05:57N 49°09' W 122°57'1 3.0
2018-Jan-18 05:30N 49°09' W 122°59'2 4.6
2018-Jan-18 05:00N 49°09' W 123°02'3 5.0
2018-Jan-18 04:27N 49°07' W 123°06'3 5.2
2018-Jan-18 03:57N 49°07' W 123°10'3 5.7
2018-Jan-18 03:30N 49°08' W 123°13'3 6.4
2018-Jan-18 02:59N 49°06' W 123°18'3 5.2
2018-Jan-18 02:29N 49°06' W 123°22'4 7.1
2018-Jan-18 01:54N 49°07' W 123°28'  
2018-Jan-11 15:16N 48°07' W 123°27'0 0.2
2018-Jan-11 14:59N 48°08' W 123°26'0 0.9
2018-Jan-11 14:28N 48°08' W 123°26'2 3.4
2018-Jan-11 13:57N 48°08' W 123°23'2 3.2
2018-Jan-11 13:23N 48°09' W 123°21'1 3.0
2018-Jan-11 12:53N 48°10' W 123°19'2 4.9
2018-Jan-11 12:29N 48°11' W 123°17'9 5.0
2018-Jan-11 10:43N 48°19' W 123°13'2 5.6
2018-Jan-11 10:26N 48°21' W 123°13'3 5.3
2018-Jan-11 09:57N 48°24' W 123°13'3 5.9
2018-Jan-11 09:28N 48°26' W 123°12'3 6.9
2018-Jan-11 09:00N 48°30' W 123°13'3 5.9
2018-Jan-11 08:30N 48°32' W 123°13'3 5.5
2018-Jan-11 07:59N 48°35' W 123°14'3 5.3
2018-Jan-11 07:28N 48°38' W 123°15'3 6.6
2018-Jan-11 07:00N 48°41' W 123°16'3 6.6
2018-Jan-11 06:29N 48°44' W 123°18'3 6.2
2018-Jan-11 05:57N 48°47' W 123°21'4 5.4
2018-Jan-11 05:08N 48°51' W 123°23'14 5.7
2018-Jan-11 02:37N 49°04' W 123°31'1 8.3
2018-Jan-11 02:26N 49°05' W 123°30'4 8.5
2018-Jan-11 01:57N 49°09' W 123°26'3 7.7
2018-Jan-11 01:30N 49°12' W 123°23'4 8.7
2018-Jan-11 01:00N 49°15' W 123°19'2 4.4
2018-Jan-11 00:29N 49°15' W 123°15'0 0.0
2018-Jan-10 23:59N 49°15' W 123°15'0 0.0
2018-Jan-10 23:29N 49°15' W 123°15'0 0.0
2018-Jan-10 22:55N 49°15' W 123°15'0 0.0
2018-Jan-10 22:24N 49°15' W 123°15'0 0.0
2018-Jan-10 21:54N 49°15' W 123°15'0 0.0
2018-Jan-10 21:30N 49°15' W 123°15'0 0.3
2018-Jan-10 20:58N 49°15' W 123°16'1 2.5
2018-Jan-10 20:30N 49°16' W 123°17'3 5.5
2018-Jan-10 19:57N 49°15' W 123°22'4 7.3
2018-Jan-10 19:27N 49°15' W 123°27'3 7.2
2018-Jan-10 19:00N 49°14' W 123°32'13 6.8
2018-Jan-10 17:09N 49°13' W 123°51'  
Track history (hours):
 
Tides and Currents Weather Stations Pressure Air Temp Water Temp Dewpoint Dewpoint Depression Visibility Wind Speed Wind Dir Waves Ship Positions

Seaspan Protector

Last reported at 2018-Jan-20 16:59 UTC. Time now 2018-Jan-20 17:23 UTC.
Position N 49°16' W 123°17'.

Length 22 m; draft 3.2 m.

Type: Towing. MMSI: 316003677.

Date/timePositionNaut miles runAvg speedWind from/ knotsBaromVisibWave heightAir tempDewpointWater temp
2018-Jan-20 16:59N 49°16' W 123°17'2 3.1
2018-Jan-20 16:28N 49°15' W 123°16'0 0.5
2018-Jan-20 15:57N 49°15' W 123°16'0 0.8
2018-Jan-20 15:30N 49°15' W 123°16'2 4.6
2018-Jan-20 14:59N 49°15' W 123°20'4 6.6
2018-Jan-20 14:26N 49°14' W 123°25'3 6.5
2018-Jan-20 13:59N 49°14' W 123°30'3 5.7
2018-Jan-20 13:26N 49°14' W 123°34'13 5.5
2018-Jan-20 11:08N 49°11' W 123°53'3 0.8
2018-Jan-20 07:21N 49°13' W 123°50'12 4.1
2018-Jan-20 04:32N 49°09' W 123°33'2 5.6
2018-Jan-20 04:09N 49°08' W 123°30'1 5.2
2018-Jan-20 04:00N 49°08' W 123°28'3 5.2
2018-Jan-20 03:23N 49°07' W 123°24'2 5.5
2018-Jan-20 02:57N 49°06' W 123°20'2 5.3
2018-Jan-20 02:30N 49°07' W 123°17'4 5.2
2018-Jan-20 01:48N 49°07' W 123°11'3 6.3
2018-Jan-20 01:24N 49°07' W 123°08'3 6.2
2018-Jan-20 00:57N 49°08' W 123°04'3 6.2
2018-Jan-20 00:30N 49°09' W 123°00'2 3.8
2018-Jan-19 23:58N 49°09' W 122°57'1 2.7
2018-Jan-19 23:30N 49°10' W 122°55'0 0.0
2018-Jan-19 23:00N 49°10' W 122°55'0 0.0
2018-Jan-19 22:30N 49°10' W 122°55'0 0.0
2018-Jan-19 21:59N 49°10' W 122°55'0 0.0
2018-Jan-19 21:29N 49°10' W 122°55'0 0.0
2018-Jan-19 20:59N 49°10' W 122°55'0 0.0
2018-Jan-19 20:30N 49°10' W 122°55'0 0.0
2018-Jan-19 20:00N 49°10' W 122°55'0 0.0
2018-Jan-19 19:30N 49°10' W 122°55'0 0.0
2018-Jan-19 18:59N 49°10' W 122°55'0 0.0
2018-Jan-19 18:30N 49°10' W 122°55'0 0.0
2018-Jan-19 18:00N 49°10' W 122°55'0 0.0
2018-Jan-19 17:29N 49°10' W 122°55'0 0.0
2018-Jan-19 16:59N 49°10' W 122°55'0 0.0
2018-Jan-19 16:16N 49°10' W 122°55'0 0.0
2018-Jan-19 15:59N 49°10' W 122°55'0 0.0
2018-Jan-19 15:29N 49°10' W 122°55'0 0.0
2018-Jan-19 14:42N 49°10' W 122°55'0 0.0
2018-Jan-19 14:19N 49°10' W 122°55'0 0.0
2018-Jan-19 13:59N 49°10' W 122°55'0 0.0
2018-Jan-19 13:30N 49°10' W 122°55'0 0.0
2018-Jan-19 13:00N 49°10' W 122°55'0 0.0
2018-Jan-19 12:29N 49°10' W 122°55'2 3.9
2018-Jan-19 12:00N 49°09' W 122°58'3 5.1
2018-Jan-19 11:29N 49°09' W 123°02'3 6.2
2018-Jan-19 10:59N 49°07' W 123°06'3 5.5
2018-Jan-19 10:29N 49°07' W 123°10'3 5.8
2018-Jan-19 10:00N 49°08' W 123°14'3 5.2
2018-Jan-19 09:30N 49°07' W 123°17'2 3.8
2018-Jan-19 09:00N 49°06' W 123°20'4 6.0
2018-Jan-19 08:16N 49°08' W 123°27'8 0.9
2018-Jan-18 22:18N 49°11' W 123°39'5 8.1
2018-Jan-18 21:39N 49°09' W 123°31'3 8.4
2018-Jan-18 21:16N 49°08' W 123°27'2 8.0
2018-Jan-18 21:00N 49°07' W 123°24'5 7.5
2018-Jan-18 20:23N 49°07' W 123°16'3 8.0
2018-Jan-18 19:57N 49°07' W 123°11'4 8.7
2018-Jan-18 19:30N 49°07' W 123°05'4 8.5
2018-Jan-18 19:00N 49°09' W 122°60'2 1.1
2018-Jan-18 17:16N 49°10' W 122°57'0 0.0
2018-Jan-18 16:47N 49°10' W 122°57'0 0.0
2018-Jan-18 16:18N 49°10' W 122°57'0 0.0
2018-Jan-18 15:43N 49°10' W 122°57'0 0.0
2018-Jan-18 15:29N 49°10' W 122°57'0 0.0
2018-Jan-18 14:58N 49°10' W 122°57'0 0.0
2018-Jan-18 13:41N 49°10' W 122°57'0 0.0
2018-Jan-18 13:29N 49°10' W 122°57'0 0.0
2018-Jan-18 12:55N 49°10' W 122°57'0 0.0
2018-Jan-18 06:51N 49°10' W 122°57'0 0.0
2018-Jan-18 06:30N 49°10' W 122°57'0 0.3
2018-Jan-18 05:57N 49°09' W 122°57'1 3.0
2018-Jan-18 05:30N 49°09' W 122°59'2 4.6
2018-Jan-18 05:00N 49°09' W 123°02'3 5.0
2018-Jan-18 04:27N 49°07' W 123°06'3 5.2
2018-Jan-18 03:57N 49°07' W 123°10'3 5.7
2018-Jan-18 03:30N 49°08' W 123°13'3 6.4
2018-Jan-18 02:59N 49°06' W 123°18'3 5.2
2018-Jan-18 02:29N 49°06' W 123°22'4 7.1
2018-Jan-18 01:54N 49°07' W 123°28'  
2018-Jan-11 15:16N 48°07' W 123°27'0 0.2
2018-Jan-11 14:59N 48°08' W 123°26'0 0.9
2018-Jan-11 14:28N 48°08' W 123°26'2 3.4
2018-Jan-11 13:57N 48°08' W 123°23'2 3.2
2018-Jan-11 13:23N 48°09' W 123°21'1 3.0
2018-Jan-11 12:53N 48°10' W 123°19'2 4.9
2018-Jan-11 12:29N 48°11' W 123°17'9 5.0
2018-Jan-11 10:43N 48°19' W 123°13'2 5.6
2018-Jan-11 10:26N 48°21' W 123°13'3 5.3
2018-Jan-11 09:57N 48°24' W 123°13'3 5.9
2018-Jan-11 09:28N 48°26' W 123°12'3 6.9
2018-Jan-11 09:00N 48°30' W 123°13'3 5.9
2018-Jan-11 08:30N 48°32' W 123°13'3 5.5
2018-Jan-11 07:59N 48°35' W 123°14'3 5.3
2018-Jan-11 07:28N 48°38' W 123°15'3 6.6
2018-Jan-11 07:00N 48°41' W 123°16'3 6.6
2018-Jan-11 06:29N 48°44' W 123°18'3 6.2
2018-Jan-11 05:57N 48°47' W 123°21'4 5.4
2018-Jan-11 05:08N 48°51' W 123°23'14 5.7
2018-Jan-11 02:37N 49°04' W 123°31'1 8.3
2018-Jan-11 02:26N 49°05' W 123°30'4 8.5
2018-Jan-11 01:57N 49°09' W 123°26'3 7.7
2018-Jan-11 01:30N 49°12' W 123°23'4 8.7
2018-Jan-11 01:00N 49°15' W 123°19'2 4.4
2018-Jan-11 00:29N 49°15' W 123°15'0 0.0
2018-Jan-10 23:59N 49°15' W 123°15'0 0.0
2018-Jan-10 23:29N 49°15' W 123°15'0 0.0
2018-Jan-10 22:55N 49°15' W 123°15'0 0.0
2018-Jan-10 22:24N 49°15' W 123°15'0 0.0
2018-Jan-10 21:54N 49°15' W 123°15'0 0.0
2018-Jan-10 21:30N 49°15' W 123°15'0 0.3
2018-Jan-10 20:58N 49°15' W 123°16'1 2.5
2018-Jan-10 20:30N 49°16' W 123°17'3 5.5
2018-Jan-10 19:57N 49°15' W 123°22'4 7.3
2018-Jan-10 19:27N 49°15' W 123°27'3 7.2
2018-Jan-10 19:00N 49°14' W 123°32'13 6.8
2018-Jan-10 17:09N 49°13' W 123°51'  

Dump ship's entire track history